Time;durP1;ratioP1;P1;durP2;ratioP2;P2;SDS_P1;SDS_P2;PMS_P1;PMS_P2;Temp;Humidity;BMP_temperature;BMP_pressure;BME280_temperature;BME280_humidity;BME280_pressure;Samples;Min_cycle;Max_cycle;Signal;HPM_P1;HPM_P2
2022/10/23 00:01:29;;;;;;;2.45;1.15;;;16.60;65.40;;;;;;2327834;54;21026;-77
2022/10/23 00:04:00;;;;;;;3.78;1.00;;;16.60;65.50;;;;;;2328503;55;21016;-77
2022/10/23 00:06:26;;;;;;;4.20;1.20;;;16.60;65.50;;;;;;2330202;53;20982;-78
2022/10/23 00:08:53;;;;;;;2.10;0.88;;;16.60;65.60;;;;;;2440468;53;20931;-77
2022/10/23 00:11:24;;;;;;;3.97;0.90;;;16.60;65.60;;;;;;2345196;53;20950;-77
2022/10/23 00:13:53;;;;;;;2.17;0.70;;;16.50;65.50;;;;;;2444555;53;20935;-78
2022/10/23 00:16:20;;;;;;;1.62;0.70;;;16.50;65.60;;;;;;2328460;54;20935;-77
2022/10/23 00:18:46;;;;;;;3.25;0.75;;;16.50;65.70;;;;;;2328849;55;20907;-80
2022/10/23 00:21:14;;;;;;;2.33;0.70;;;16.50;65.80;;;;;;2572666;53;21025;-78
2022/10/23 00:23:40;;;;;;;1.33;0.50;;;16.50;66.10;;;;;;2329081;54;20955;-78
2022/10/23 00:26:14;;;;;;;2.47;0.70;;;16.50;66.10;;;;;;2343412;53;21504;-77
2022/10/23 00:28:51;;;;;;;2.10;0.80;;;16.50;66.10;;;;;;2328266;54;21095;-77
2022/10/23 00:31:18;;;;;;;1.20;0.50;;;16.50;66.10;;;;;;2328952;55;20915;-77
2022/10/23 00:33:45;;;;;;;1.17;0.47;;;16.50;66.10;;;;;;2391417;53;20937;-77
2022/10/23 00:36:12;;;;;;;3.72;0.50;;;16.50;66.00;;;;;;2316825;54;20958;-77
2022/10/23 00:38:39;;;;;;;2.72;0.60;;;16.50;66.10;;;;;;2328545;54;20939;-80
2022/10/23 00:41:07;;;;;;;2.10;0.82;;;16.50;66.10;;;;;;2381986;53;20890;-82
2022/10/23 00:43:33;;;;;;;1.15;0.45;;;16.50;66.10;;;;;;2324041;53;20996;-78
2022/10/23 00:46:05;;;;;;;2.42;0.68;;;16.50;66.10;;;;;;2330617;54;21003;-77
2022/10/23 00:48:31;;;;;;;2.72;0.77;;;16.50;66.10;;;;;;2408524;53;20915;-77
2022/10/23 00:50:58;;;;;;;1.05;0.40;;;16.50;66.20;;;;;;2328690;54;21022;-78
2022/10/23 00:53:26;;;;;;;2.05;0.50;;;16.50;66.20;;;;;;2518749;53;20943;-79
2022/10/23 00:55:53;;;;;;;1.75;0.50;;;16.50;66.20;;;;;;2481306;53;20998;-79
2022/10/23 00:58:20;;;;;;;1.20;0.40;;;16.50;66.30;;;;;;2329292;55;21038;-79
2022/10/23 01:00:51;;;;;;;1.00;0.40;;;16.50;66.10;;;;;;2392268;53;20971;-79
2022/10/23 01:03:19;;;;;;;0.57;0.30;;;16.50;66.10;;;;;;2330998;55;22073;-78
2022/10/23 01:08:49;;;;;;;2.90;0.60;;;16.50;66.20;;;;;;2329838;55;20958;-78
2022/10/23 01:11:21;;;;;;;1.30;0.32;;;16.50;66.30;;;;;;2331324;54;20973;-78
2022/10/23 01:14:00;;;;;;;0.93;0.30;;;16.50;66.30;;;;;;2393095;53;21026;-79
2022/10/23 01:18:43;;;;;;;4.60;0.37;;;16.50;66.50;;;;;;2330003;55;20927;-77
2022/10/23 01:36:00;;;;;;;0.40;0.20;;;16.50;66.60;;;;;;2431105;53;21773;-77
2022/10/23 01:40:42;;;;;;;0.65;0.30;;;16.50;66.60;;;;;;2444516;53;24558;-79
2022/10/23 01:43:15;;;;;;;1.33;0.30;;;16.60;66.90;;;;;;2319097;55;20966;-79
2022/10/23 01:45:44;;;;;;;2.28;0.47;;;16.60;66.70;;;;;;2319267;55;22025;-79
2022/10/23 01:48:14;;;;;;;1.12;0.32;;;16.60;66.80;;;;;;2487325;53;20953;-78
2022/10/23 01:50:41;;;;;;;2.78;0.35;;;16.70;67.00;;;;;;2331560;53;20956;-79
2022/10/23 01:53:07;;;;;;;0.73;0.50;;;16.70;67.20;;;;;;2342817;54;21000;-78
2022/10/23 01:55:34;;;;;;;1.15;0.40;;;16.70;67.20;;;;;;2321593;53;20961;-81
2022/10/23 01:58:02;;;;;;;1.95;0.37;;;16.70;67.30;;;;;;2318645;54;21067;-78
2022/10/23 02:00:30;;;;;;;3.87;0.52;;;16.80;67.40;;;;;;2382431;53;20949;-79
2022/10/23 02:03:02;;;;;;;0.95;0.40;;;16.80;67.50;;;;;;2291247;54;20975;-77
2022/10/23 02:05:29;;;;;;;1.33;0.40;;;16.80;67.40;;;;;;2291143;54;20975;-78
2022/10/23 02:07:58;;;;;;;1.08;0.40;;;16.90;67.50;;;;;;2298730;54;20919;-79
2022/10/23 02:10:47;;;;;;;2.00;0.30;;;16.90;67.50;;;;;;2477187;53;22098;-80
2022/10/23 02:14:19;;;;;;;0.98;0.50;;;16.90;67.50;;;;;;2387518;54;20956;-80
2022/10/23 02:16:50;;;;;;;0.95;0.40;;;17.00;67.60;;;;;;2325350;53;21028;-81
2022/10/23 02:20:16;;;;;;;1.65;0.37;;;17.00;67.40;;;;;;2326485;54;21956;-79
2022/10/23 02:22:52;;;;;;;1.02;0.40;;;17.10;67.70;;;;;;2320424;54;21193;-81
2022/10/23 02:25:32;;;;;;;0.88;0.37;;;17.10;67.40;;;;;;2318773;53;21016;-77
2022/10/23 02:28:00;;;;;;;1.27;0.40;;;17.10;67.40;;;;;;2349801;53;20917;-79
2022/10/23 02:30:27;;;;;;;1.00;0.40;;;17.10;67.30;;;;;;2319977;53;21034;-79
2022/10/23 02:32:53;;;;;;;2.60;0.47;;;17.10;67.30;;;;;;2333098;53;21054;-81
2022/10/23 02:35:21;;;;;;;1.30;0.50;;;17.20;67.40;;;;;;2390118;53;22197;-79
2022/10/23 02:38:01;;;;;;;4.40;0.60;;;17.20;67.40;;;;;;2378212;53;21052;-79
2022/10/23 02:40:37;;;;;;;0.88;0.32;;;17.10;67.40;;;;;;2312330;54;20960;-79
2022/10/23 02:43:11;;;;;;;0.68;0.40;;;17.20;67.40;;;;;;2321641;54;20964;-81
2022/10/23 02:45:58;;;;;;;3.95;0.65;;;17.30;67.50;;;;;;2389851;53;21024;-78
2022/10/23 02:48:30;;;;;;;1.65;0.40;;;17.30;67.40;;;;;;2383411;53;21455;-78
2022/10/23 02:58:03;;;;;;;4.55;0.70;;;17.20;67.20;;;;;;2398726;53;25415;-79
2022/10/23 03:00:30;;;;;;;1.00;0.35;;;17.30;67.40;;;;;;2322232;53;21063;-79
2022/10/23 03:04:25;;;;;;;0.90;0.30;;;17.40;67.10;;;;;;2317532;53;21544;-79
2022/10/23 03:07:12;;;;;;;0.98;0.30;;;17.30;67.10;;;;;;2325853;53;20948;-81
2022/10/23 03:09:42;;;;;;;0.68;0.30;;;17.40;67.20;;;;;;2296498;54;20944;-79
2022/10/23 03:12:08;;;;;;;1.12;0.30;;;17.40;67.10;;;;;;2322922;54;21064;-79
2022/10/23 03:14:34;;;;;;;0.57;0.20;;;17.40;67.10;;;;;;2318984;53;20997;-79
2022/10/23 03:17:01;;;;;;;1.17;0.40;;;17.40;67.10;;;;;;2284459;54;21039;-80
2022/10/23 03:19:28;;;;;;;0.52;0.30;;;17.30;66.90;;;;;;2322271;53;21032;-79
2022/10/23 03:21:54;;;;;;;1.98;0.55;;;17.30;66.80;;;;;;2398053;53;21040;-79
2022/10/23 03:24:22;;;;;;;2.78;0.40;;;17.30;66.80;;;;;;2339371;54;20975;-79
2022/10/23 03:26:49;;;;;;;1.33;0.30;;;17.30;66.80;;;;;;2496263;53;20964;-79
2022/10/23 03:29:15;;;;;;;1.17;0.30;;;17.30;66.80;;;;;;2424228;53;20949;-79
2022/10/23 03:31:44;;;;;;;2.20;0.40;;;17.30;66.70;;;;;;2353102;53;20949;-79
2022/10/23 03:34:13;;;;;;;0.77;0.28;;;17.30;66.70;;;;;;2330385;53;21005;-79
2022/10/23 03:36:40;;;;;;;0.55;0.30;;;17.30;66.70;;;;;;2384818;53;22133;-79
2022/10/23 03:39:06;;;;;;;2.83;0.35;;;17.30;66.60;;;;;;2363993;53;20947;-80
2022/10/23 03:41:32;;;;;;;1.25;0.30;;;17.30;66.80;;;;;;2328145;53;20948;-79
2022/10/23 03:43:59;;;;;;;3.60;0.52;;;17.30;66.80;;;;;;2432408;53;21036;-79
2022/10/23 03:46:25;;;;;;;1.73;0.37;;;17.20;66.70;;;;;;2411514;53;21036;-79
2022/10/23 03:48:52;;;;;;;0.52;0.20;;;17.20;66.80;;;;;;2367164;53;21448;-77
2022/10/23 03:51:22;;;;;;;1.08;0.32;;;17.20;66.80;;;;;;2317994;54;21529;-79
2022/10/23 03:53:49;;;;;;;1.92;0.75;;;17.20;66.80;;;;;;2319938;54;21010;-78
2022/10/23 03:56:16;;;;;;;0.52;0.22;;;17.20;66.70;;;;;;2328237;53;20975;-79
2022/10/23 03:58:42;;;;;;;2.60;0.65;;;17.20;66.70;;;;;;2320937;53;20951;-78
2022/10/23 04:01:09;;;;;;;1.20;0.30;;;17.20;66.80;;;;;;2345968;53;22021;-80
2022/10/23 04:03:35;;;;;;;0.47;0.22;;;17.20;66.80;;;;;;2326142;55;20947;-79
2022/10/23 04:06:02;;;;;;;0.35;0.30;;;17.20;66.80;;;;;;2328298;53;21000;-78
2022/10/23 04:08:28;;;;;;;3.53;0.50;;;17.20;66.70;;;;;;2331324;53;21391;-79
2022/10/23 04:10:55;;;;;;;0.37;0.20;;;17.20;66.70;;;;;;2301442;53;21037;-82
2022/10/23 04:13:22;;;;;;;1.30;0.45;;;17.20;66.80;;;;;;2436676;52;21089;-79
2022/10/23 04:15:49;;;;;;;0.85;0.30;;;17.10;66.70;;;;;;2312912;53;20992;-79
2022/10/23 04:18:21;;;;;;;0.68;0.30;;;17.20;66.90;;;;;;2301795;54;20997;-79
2022/10/23 04:20:49;;;;;;;0.30;0.22;;;17.10;66.80;;;;;;2311725;54;20934;-79
2022/10/23 04:23:15;;;;;;;0.95;0.40;;;17.20;66.90;;;;;;2301364;54;21788;-79
2022/10/23 04:25:43;;;;;;;1.25;0.30;;;17.20;66.80;;;;;;2355464;54;21987;-80
2022/10/23 04:28:09;;;;;;;2.42;0.35;;;17.20;66.90;;;;;;2310903;53;21069;-79
2022/10/23 04:30:36;;;;;;;3.10;0.62;;;17.20;66.80;;;;;;2441681;53;20939;-81
2022/10/23 04:33:03;;;;;;;0.73;0.30;;;17.20;66.80;;;;;;2300593;54;20939;-79
2022/10/23 04:35:29;;;;;;;4.18;0.40;;;17.20;66.80;;;;;;2301117;54;21483;-79
2022/10/23 04:37:56;;;;;;;1.95;0.40;;;17.10;66.70;;;;;;2380365;54;21895;-79
2022/10/23 04:40:23;;;;;;;1.73;0.40;;;17.20;66.80;;;;;;2407230;54;21302;-79
2022/10/23 04:42:49;;;;;;;0.47;0.25;;;17.10;66.80;;;;;;2399271;54;20971;-80
2022/10/23 04:45:16;;;;;;;1.27;0.37;;;17.10;66.80;;;;;;2302833;54;22031;-79
2022/10/23 04:47:49;;;;;;;1.10;0.40;;;17.10;66.80;;;;;;2324958;54;21094;-79
2022/10/23 04:50:18;;;;;;;1.48;0.30;;;17.20;67.00;;;;;;2349398;54;21122;-82
2022/10/23 04:52:44;;;;;;;0.98;0.35;;;17.10;66.80;;;;;;2448367;54;20984;-80
2022/10/23 04:55:11;;;;;;;4.68;0.40;;;17.20;67.00;;;;;;2337093;54;20943;-79
2022/10/23 04:57:37;;;;;;;1.23;0.30;;;17.10;66.90;;;;;;2330737;54;21059;-81
2022/10/23 05:00:06;;;;;;;1.15;0.40;;;17.20;67.10;;;;;;2300850;54;21023;-79
2022/10/23 05:02:32;;;;;;;2.37;0.30;;;17.20;67.10;;;;;;2347325;53;21088;-79
2022/10/23 05:04:59;;;;;;;0.70;0.25;;;17.20;67.10;;;;;;2379934;53;20960;-82
2022/10/23 05:07:26;;;;;;;0.47;0.13;;;17.20;67.00;;;;;;2327908;53;22087;-79
2022/10/23 05:09:55;;;;;;;1.67;0.30;;;17.20;67.00;;;;;;2418773;53;21542;-79
2022/10/23 05:12:25;;;;;;;0.73;0.30;;;17.20;66.90;;;;;;2324392;53;21009;-78
2022/10/23 05:14:52;;;;;;;1.12;0.30;;;17.20;66.80;;;;;;2313503;53;20946;-79
2022/10/23 05:17:40;;;;;;;0.50;0.22;;;17.20;66.60;;;;;;2341376;53;20950;-78
2022/10/23 05:20:11;;;;;;;1.52;0.25;;;17.20;66.50;;;;;;2345129;54;21003;-79
2022/10/23 05:22:38;;;;;;;2.30;0.40;;;17.20;66.60;;;;;;2322978;54;21988;-79
2022/10/23 05:25:05;;;;;;;0.50;0.20;;;17.20;66.50;;;;;;2328009;54;21039;-80
2022/10/23 05:27:32;;;;;;;0.40;0.20;;;17.20;66.50;;;;;;2328396;55;20935;-79
2022/10/23 05:30:07;;;;;;;0.30;0.10;;;17.10;66.40;;;;;;2325315;53;21031;-79
2022/10/23 05:32:33;;;;;;;0.22;0.20;;;17.10;66.40;;;;;;2537450;53;21159;-80
2022/10/23 05:35:00;;;;;;;0.73;0.30;;;17.10;66.30;;;;;;2323537;53;22457;-78
2022/10/23 05:37:26;;;;;;;2.50;0.25;;;17.10;66.20;;;;;;2318502;54;20951;-79
2022/10/23 05:39:52;;;;;;;1.85;0.20;;;17.10;66.30;;;;;;2364144;53;21504;-79
2022/10/23 05:42:19;;;;;;;0.77;0.20;;;17.10;66.30;;;;;;2331172;53;21055;-79
2022/10/23 05:44:46;;;;;;;0.62;0.22;;;17.00;66.30;;;;;;2331877;53;21011;-79
2022/10/23 05:47:14;;;;;;;0.85;0.30;;;17.00;66.30;;;;;;2338758;53;21287;-78
2022/10/23 05:49:41;;;;;;;2.12;0.20;;;17.00;66.30;;;;;;2387881;53;20951;-79
2022/10/23 05:52:10;;;;;;;0.70;0.32;;;17.00;66.30;;;;;;2334295;53;20948;-80
2022/10/23 05:54:36;;;;;;;1.83;0.50;;;17.00;66.40;;;;;;2331477;53;20959;-78
2022/10/23 05:57:03;;;;;;;1.42;0.50;;;17.00;66.40;;;;;;2336883;53;21035;-79
2022/10/23 05:59:29;;;;;;;3.92;0.50;;;16.90;66.30;;;;;;2333163;53;21032;-79
2022/10/23 06:01:56;;;;;;;5.22;0.60;;;16.90;66.20;;;;;;2358220;53;20960;-79
2022/10/23 06:04:22;;;;;;;1.25;0.50;;;16.90;66.10;;;;;;2343978;53;21948;-77
2022/10/23 06:06:49;;;;;;;2.00;0.60;;;16.90;66.00;;;;;;2423204;53;20964;-79
2022/10/23 06:09:16;;;;;;;2.90;0.55;;;16.90;66.10;;;;;;2391447;53;20947;-79
2022/10/23 06:11:44;;;;;;;0.95;0.40;;;16.80;66.10;;;;;;2436502;53;21066;-79
2022/10/23 06:14:11;;;;;;;0.80;0.32;;;16.80;66.10;;;;;;2330810;53;21026;-79
2022/10/23 06:16:40;;;;;;;0.90;0.40;;;16.80;66.20;;;;;;2356700;53;20940;-79
2022/10/23 06:19:10;;;;;;;0.43;0.30;;;16.80;66.20;;;;;;2379255;53;20952;-78
2022/10/23 06:21:37;;;;;;;1.23;0.40;;;16.80;66.30;;;;;;2335495;53;20995;-80
2022/10/23 06:24:04;;;;;;;1.23;0.50;;;16.80;66.40;;;;;;2332545;53;20953;-79
2022/10/23 06:26:32;;;;;;;0.77;0.32;;;16.80;66.40;;;;;;2359813;53;20940;-81
2022/10/23 06:28:59;;;;;;;1.42;0.40;;;16.80;66.40;;;;;;2332704;53;21003;-80
2022/10/23 06:31:27;;;;;;;0.95;0.30;;;16.70;66.40;;;;;;2332724;53;20949;-81
2022/10/23 06:33:55;;;;;;;1.98;0.73;;;16.70;66.50;;;;;;2393397;53;21933;-81
2022/10/23 06:36:21;;;;;;;0.82;0.40;;;16.80;66.70;;;;;;2373614;53;20948;-79
2022/10/23 06:38:48;;;;;;;2.22;0.43;;;16.80;66.80;;;;;;2357317;52;20956;-80
2022/10/23 06:41:17;;;;;;;1.00;0.37;;;16.80;66.80;;;;;;2331245;53;21567;-80
2022/10/23 06:43:43;;;;;;;0.65;0.30;;;16.80;66.80;;;;;;2435982;53;22167;-79
2022/10/23 06:46:12;;;;;;;1.45;0.50;;;16.80;66.80;;;;;;2341098;53;21999;-79
2022/10/23 06:48:41;;;;;;;1.40;0.50;;;16.80;66.70;;;;;;2398505;53;20924;-81
2022/10/23 06:51:08;;;;;;;1.80;0.50;;;16.80;66.80;;;;;;2445302;53;20988;-81
2022/10/23 06:53:36;;;;;;;3.05;0.65;;;16.80;66.80;;;;;;2350899;53;21932;-79
2022/10/23 06:56:03;;;;;;;1.75;0.60;;;16.80;66.80;;;;;;2332098;53;21293;-80
2022/10/23 06:58:30;;;;;;;1.10;0.50;;;16.80;66.80;;;;;;2332550;53;21055;-78
2022/10/23 07:00:59;;;;;;;1.12;0.40;;;16.80;66.80;;;;;;2332504;53;20988;-78
2022/10/23 07:03:26;;;;;;;1.90;0.60;;;16.80;66.80;;;;;;2419895;53;22004;-78
2022/10/23 07:06:01;;;;;;;1.40;0.60;;;16.90;67.00;;;;;;2311664;54;20963;-77
2022/10/23 07:08:30;;;;;;;2.37;0.80;;;16.80;66.80;;;;;;2355775;53;20988;-79
2022/10/23 07:11:06;;;;;;;4.15;0.93;;;16.90;66.90;;;;;;2365066;53;21940;-80
2022/10/23 07:13:34;;;;;;;2.37;0.95;;;16.80;66.80;;;;;;2382911;53;21032;-79
2022/10/23 07:16:17;;;;;;;1.90;0.80;;;16.90;66.90;;;;;;2328400;53;21139;-80
2022/10/23 07:18:44;;;;;;;2.20;1.00;;;16.90;67.00;;;;;;2341432;53;20977;-79
2022/10/23 07:21:10;;;;;;;1.90;0.85;;;16.90;67.00;;;;;;2359359;53;21115;-82
2022/10/23 07:23:37;;;;;;;3.53;0.90;;;16.80;67.00;;;;;;2335672;53;20948;-79
2022/10/23 07:26:08;;;;;;;1.70;0.70;;;16.90;67.10;;;;;;2324181;53;21007;-81
2022/10/23 07:28:34;;;;;;;3.10;0.43;;;16.90;67.10;;;;;;2442461;53;21003;-79
2022/10/23 07:31:00;;;;;;;1.48;0.57;;;16.90;67.10;;;;;;2510433;53;21055;-80
2022/10/23 07:33:28;;;;;;;1.95;0.82;;;16.90;67.10;;;;;;2560751;53;20932;-78
2022/10/23 07:35:54;;;;;;;2.58;0.50;;;16.90;67.20;;;;;;2337208;53;21051;-79
2022/10/23 07:38:20;;;;;;;2.20;0.68;;;17.00;67.40;;;;;;2394819;53;21533;-80
2022/10/23 07:40:46;;;;;;;1.67;0.60;;;17.00;67.40;;;;;;2575460;53;21443;-80
2022/10/23 07:43:13;;;;;;;1.37;0.60;;;17.00;67.50;;;;;;2332994;53;20960;-78
2022/10/23 07:45:40;;;;;;;1.58;0.60;;;17.00;67.50;;;;;;2333285;53;20963;-79
2022/10/23 07:48:06;;;;;;;1.25;0.60;;;17.10;67.70;;;;;;2333410;54;20973;-80
2022/10/23 07:50:36;;;;;;;2.37;0.50;;;17.10;67.60;;;;;;2354397;53;21477;-79
2022/10/23 07:53:08;;;;;;;1.40;0.40;;;17.10;67.70;;;;;;2551500;53;20944;-80
2022/10/23 07:55:35;;;;;;;1.17;0.40;;;17.20;67.80;;;;;;2429122;53;20989;-81
2022/10/23 07:58:03;;;;;;;1.33;0.50;;;17.20;67.70;;;;;;2382140;53;20963;-84
2022/10/23 08:00:32;;;;;;;1.52;0.60;;;17.20;67.80;;;;;;2481237;52;21005;-82
2022/10/23 08:02:58;;;;;;;1.05;0.40;;;17.30;67.90;;;;;;2379250;53;21040;-80
2022/10/23 08:05:25;;;;;;;1.58;0.40;;;17.30;67.90;;;;;;2333722;54;22030;-81
2022/10/23 08:07:53;;;;;;;2.65;0.52;;;17.30;68.00;;;;;;2338506;53;20909;-79
2022/10/23 08:10:19;;;;;;;1.70;0.40;;;17.40;68.00;;;;;;2332978;53;21012;-81
2022/10/23 08:12:45;;;;;;;0.60;0.30;;;17.40;68.00;;;;;;2362233;53;20936;-82
2022/10/23 08:15:12;;;;;;;0.80;0.30;;;17.50;68.10;;;;;;2332130;53;20976;-80
2022/10/23 08:17:38;;;;;;;0.82;0.30;;;17.50;68.10;;;;;;2371914;53;21035;-80
2022/10/23 08:20:05;;;;;;;0.93;0.37;;;17.60;68.20;;;;;;2333178;53;20932;-81
2022/10/23 08:22:33;;;;;;;0.50;0.30;;;17.60;68.30;;;;;;2383831;53;21043;-79
2022/10/23 08:25:01;;;;;;;0.90;0.37;;;17.70;68.30;;;;;;2332805;53;20936;-82
2022/10/23 08:27:27;;;;;;;1.08;0.40;;;17.70;68.30;;;;;;2334324;53;20960;-82
2022/10/23 08:29:54;;;;;;;0.80;0.40;;;17.80;68.50;;;;;;2324667;53;20967;-80
2022/10/23 08:32:22;;;;;;;2.50;0.30;;;17.80;68.50;;;;;;2333364;53;20932;-80
2022/10/23 08:34:48;;;;;;;1.20;0.37;;;17.90;68.60;;;;;;2456618;53;20940;-80
2022/10/23 08:37:14;;;;;;;2.33;0.50;;;18.00;68.70;;;;;;2330330;53;21998;-80
2022/10/23 08:39:41;;;;;;;1.55;0.60;;;18.00;68.80;;;;;;2574113;53;21567;-80
2022/10/23 08:42:31;;;;;;;1.02;0.40;;;18.10;68.90;;;;;;2332024;53;20917;-80
2022/10/23 08:45:06;;;;;;;2.58;0.50;;;18.20;68.90;;;;;;2332086;53;20904;-80
2022/10/23 08:47:54;;;;;;;1.80;0.40;;;18.30;69.00;;;;;;2333279;53;21517;-80
2022/10/23 08:50:35;;;;;;;0.73;0.30;;;18.40;69.20;;;;;;2425298;52;20944;-83
2022/10/23 08:53:24;;;;;;;1.30;0.52;;;18.40;69.10;;;;;;2389595;53;20960;-81
2022/10/23 08:56:03;;;;;;;1.20;0.47;;;18.50;69.30;;;;;;2334630;53;21007;-81
2022/10/23 08:58:44;;;;;;;1.05;0.30;;;18.60;69.30;;;;;;2411137;53;20972;-83
2022/10/23 09:01:40;;;;;;;1.08;0.30;;;18.70;69.60;;;;;;2332876;53;20884;-83
2022/10/23 09:04:11;;;;;;;1.50;0.32;;;18.80;69.60;;;;;;2398963;53;20976;-81
2022/10/23 09:06:45;;;;;;;3.50;0.50;;;18.90;69.40;;;;;;2333000;53;20933;-80
2022/10/23 09:09:23;;;;;;;1.17;0.43;;;19.00;69.50;;;;;;2341158;53;21031;-80
2022/10/23 09:12:02;;;;;;;1.17;0.50;;;19.00;69.40;;;;;;2377022;53;20936;-81
2022/10/23 09:15:07;;;;;;;1.50;0.57;;;19.10;69.20;;;;;;2497714;53;20993;-84
2022/10/23 09:17:38;;;;;;;1.92;0.62;;;19.30;69.20;;;;;;2453014;53;20948;-81
2022/10/23 09:21:55;;;;;;;1.20;0.47;;;19.30;69.10;;;;;;2347546;53;21007;-82
2022/10/23 09:24:23;;;;;;;2.30;0.50;;;19.50;68.70;;;;;;2310561;54;20932;-80
2022/10/23 09:26:50;;;;;;;1.02;0.40;;;19.60;68.80;;;;;;2362520;54;21451;-82
2022/10/23 09:29:24;;;;;;;0.90;0.45;;;19.70;68.70;;;;;;2333818;53;21047;-80
2022/10/23 09:31:53;;;;;;;2.00;0.50;;;19.70;68.40;;;;;;2487010;53;20972;-80
2022/10/23 09:34:23;;;;;;;0.75;0.40;;;19.80;68.20;;;;;;2412220;53;20952;-81
2022/10/23 09:37:01;;;;;;;2.72;0.50;;;19.90;68.30;;;;;;2332972;53;21993;-79
2022/10/23 09:39:34;;;;;;;1.23;0.50;;;20.00;68.00;;;;;;2333018;53;21406;-79
2022/10/23 09:42:22;;;;;;;1.05;0.50;;;20.00;68.00;;;;;;2414066;53;21402;-79
2022/10/23 09:44:51;;;;;;;0.85;0.40;;;20.10;68.00;;;;;;2333444;53;20932;-79
2022/10/23 09:47:19;;;;;;;1.48;0.70;;;20.10;67.80;;;;;;2511881;53;20956;-79
2022/10/23 09:49:47;;;;;;;1.52;0.60;;;20.20;67.90;;;;;;2444432;53;20936;-79
2022/10/23 09:52:34;;;;;;;1.45;0.50;;;20.20;67.80;;;;;;2559812;53;21020;-80
2022/10/23 09:55:02;;;;;;;0.90;0.40;;;20.30;67.80;;;;;;2577164;53;20931;-78
2022/10/23 09:57:37;;;;;;;0.50;0.30;;;20.40;67.80;;;;;;2500248;53;21339;-79
2022/10/23 10:00:27;;;;;;;1.60;0.40;;;20.40;67.60;;;;;;2365580;53;20948;-79
2022/10/23 10:03:04;;;;;;;1.30;0.50;;;20.40;67.50;;;;;;2338326;53;21537;-79
2022/10/23 10:05:35;;;;;;;1.50;0.50;;;20.50;67.30;;;;;;2327210;53;20948;-79
2022/10/23 10:14:52;;;;;;;0.80;0.40;;;20.60;67.50;;;;;;2350580;53;20928;-79
2022/10/23 10:17:38;;;;;;;0.85;0.30;;;20.80;67.00;;;;;;2511225;53;21491;-78
2022/10/23 10:22:01;;;;;;;1.60;0.50;;;20.80;66.50;;;;;;2309583;54;21010;-80
2022/10/23 10:31:21;;;;;;;1.17;0.35;;;20.80;66.40;;;;;;2309047;53;20988;-79
2022/10/23 10:34:06;;;;;;;1.20;0.45;;;21.00;66.60;;;;;;2340080;53;21461;-79
2022/10/23 10:43:33;;;;;;;0.62;0.30;;;21.00;66.40;;;;;;2330386;54;20946;-79
2022/10/23 10:46:50;;;;;;;1.42;0.40;;;21.20;66.40;;;;;;2335336;53;20956;-78
2022/10/23 10:50:02;;;;;;;0.75;0.45;;;21.20;66.40;;;;;;2350471;53;20975;-78
2022/10/23 10:54:24;;;;;;;1.75;0.50;;;21.20;66.40;;;;;;2329856;54;20930;-80
2022/10/23 10:56:50;;;;;;;0.98;0.43;;;21.30;66.40;;;;;;2330182;54;20930;-79
2022/10/23 10:59:26;;;;;;;1.15;0.50;;;21.30;66.50;;;;;;2445150;52;20971;-79
2022/10/23 11:04:39;;;;;;;1.08;0.50;;;21.30;66.50;;;;;;2416798;53;20959;-79
2022/10/23 11:07:12;;;;;;;3.58;1.33;;;21.40;66.60;;;;;;2333124;54;21418;-79
2022/10/23 11:09:38;;;;;;;1.60;0.50;;;21.50;66.70;;;;;;2328846;54;20946;-79
2022/10/23 11:12:05;;;;;;;1.17;0.52;;;21.50;66.60;;;;;;2375073;53;21073;-78
2022/10/23 11:14:32;;;;;;;1.35;0.45;;;21.60;66.60;;;;;;2380151;52;20980;-78
2022/10/23 11:18:10;;;;;;;1.37;0.45;;;21.60;66.50;;;;;;2328047;54;20982;-78
2022/10/23 11:20:57;;;;;;;1.20;0.50;;;21.60;66.10;;;;;;2338500;53;21049;-78
2022/10/23 11:24:00;;;;;;;1.12;0.60;;;21.70;65.90;;;;;;2413562;52;21906;-79
2022/10/23 11:29:53;;;;;;;1.00;0.40;;;21.80;65.60;;;;;;2317487;54;20977;-80
2022/10/23 11:33:54;;;;;;;1.20;0.50;;;21.90;65.70;;;;;;2520893;53;21607;-80
2022/10/23 11:36:39;;;;;;;1.05;0.50;;;22.00;65.50;;;;;;2333525;56;21950;-79
2022/10/23 11:39:20;;;;;;;1.52;0.62;;;22.00;65.70;;;;;;2468147;53;21062;-80
2022/10/23 11:41:52;;;;;;;1.20;0.52;;;22.00;65.60;;;;;;2329924;57;21065;-80
2022/10/23 11:44:41;;;;;;;1.55;0.60;;;22.00;65.60;;;;;;2440491;53;21120;-79
2022/10/23 11:47:34;;;;;;;1.30;0.50;;;22.10;65.60;;;;;;2332090;55;21133;-80
2022/10/23 11:50:28;;;;;;;3.08;0.57;;;22.10;65.30;;;;;;2329442;57;21632;-80
2022/10/23 11:53:09;;;;;;;1.77;0.52;;;22.10;65.20;;;;;;2328757;57;21435;-79
2022/10/23 11:55:54;;;;;;;1.92;0.70;;;22.20;65.30;;;;;;2407292;53;20938;-80
2022/10/23 11:58:22;;;;;;;1.67;0.50;;;22.20;65.50;;;;;;2336625;54;20914;-80
2022/10/23 12:01:18;;;;;;;1.40;0.60;;;22.20;65.40;;;;;;2391970;52;20954;-81
2022/10/23 12:05:19;;;;;;;1.70;0.70;;;22.30;65.40;;;;;;2387052;52;21009;-81
2022/10/23 12:07:45;;;;;;;1.87;0.60;;;22.30;65.40;;;;;;2340238;54;21060;-80
2022/10/23 12:10:22;;;;;;;0.70;0.30;;;22.30;65.30;;;;;;2353846;53;21043;-80
2022/10/23 12:12:57;;;;;;;1.42;0.50;;;22.40;65.20;;;;;;2341727;54;20959;-81
2022/10/23 12:15:25;;;;;;;2.65;1.10;;;22.40;65.10;;;;;;2317463;54;20926;-82
2022/10/23 12:17:55;;;;;;;1.50;0.60;;;22.40;65.20;;;;;;2339294;54;20987;-82
2022/10/23 12:20:50;;;;;;;4.25;0.60;;;22.40;65.10;;;;;;2346837;52;21029;-80
2022/10/23 12:26:57;;;;;;;1.77;0.60;;;22.50;64.90;;;;;;2354818;52;20950;-82
2022/10/23 12:29:52;;;;;;;1.12;0.50;;;22.50;64.90;;;;;;2343783;53;21517;-80
2022/10/23 12:33:45;;;;;;;1.17;0.40;;;22.60;65.00;;;;;;2339601;54;20958;-79
2022/10/23 12:38:14;;;;;;;1.25;0.37;;;22.60;64.70;;;;;;2340259;54;21502;-80
2022/10/23 12:40:44;;;;;;;1.75;0.40;;;22.70;65.10;;;;;;2371095;52;20922;-80
2022/10/23 12:43:30;;;;;;;0.80;0.40;;;22.70;65.00;;;;;;2357790;53;21758;-80
2022/10/23 12:46:01;;;;;;;1.55;0.55;;;22.70;64.60;;;;;;2338091;54;20957;-81
2022/10/23 12:48:28;;;;;;;1.57;0.50;;;22.80;64.90;;;;;;2342744;52;20922;-80
2022/10/23 12:50:56;;;;;;;1.80;0.50;;;22.80;64.90;;;;;;2339014;53;20953;-81
2022/10/23 12:53:24;;;;;;;3.00;0.55;;;22.80;64.80;;;;;;2352016;53;21025;-79
2022/10/23 12:55:59;;;;;;;2.42;0.47;;;22.80;64.70;;;;;;2341030;53;20969;-80
2022/10/23 12:58:33;;;;;;;1.77;0.60;;;22.90;64.60;;;;;;2338642;54;21038;-80
2022/10/23 13:01:00;;;;;;;1.37;0.50;;;22.90;64.60;;;;;;2339388;53;20906;-81
2022/10/23 13:03:28;;;;;;;1.67;0.50;;;22.90;64.60;;;;;;2341317;54;22018;-80
2022/10/23 13:05:57;;;;;;;1.00;0.50;;;22.90;64.50;;;;;;2351300;52;21428;-82
2022/10/23 13:08:28;;;;;;;2.35;0.70;;;23.00;64.50;;;;;;2340896;54;20939;-81
2022/10/23 13:10:54;;;;;;;2.10;0.60;;;23.00;64.50;;;;;;2472427;52;20942;-79
2022/10/23 13:13:24;;;;;;;1.45;0.60;;;23.00;64.60;;;;;;2361184;53;20914;-80
2022/10/23 13:15:56;;;;;;;1.40;0.50;;;23.10;64.70;;;;;;2340306;53;20982;-79
2022/10/23 13:18:25;;;;;;;;;;;23.10;64.60;;;;;;2422046;52;20921;-79
2022/10/23 13:20:57;;;;;;;1.27;0.55;;;23.10;64.50;;;;;;2339385;54;20434;-80
2022/10/23 13:23:30;;;;;;;2.58;0.70;;;23.10;64.30;;;;;;2408273;52;20992;-79
2022/10/23 13:26:04;;;;;;;2.22;0.60;;;23.10;64.30;;;;;;2408896;52;20934;-80
2022/10/23 13:28:44;;;;;;;2.33;0.70;;;23.10;64.10;;;;;;2342530;53;21013;-80
2022/10/23 13:31:31;;;;;;;1.40;0.50;;;23.20;64.10;;;;;;2380440;53;21042;-80
2022/10/23 13:34:05;;;;;;;1.20;0.50;;;23.20;64.10;;;;;;2355756;52;20922;-80
2022/10/23 13:36:35;;;;;;;1.45;0.57;;;23.20;64.10;;;;;;2338775;54;20981;-78
2022/10/23 13:39:25;;;;;;;1.35;0.70;;;23.20;64.30;;;;;;2396775;52;21009;-79
2022/10/23 13:41:52;;;;;;;3.85;0.60;;;23.20;64.30;;;;;;2338630;54;21065;-80
2022/10/23 13:44:22;;;;;;;1.40;0.50;;;23.30;64.60;;;;;;2338212;53;20958;-80
2022/10/23 13:46:50;;;;;;;1.50;0.55;;;23.30;64.60;;;;;;2421465;53;20962;-82
2022/10/23 13:49:18;;;;;;;1.85;0.60;;;23.30;64.50;;;;;;2337385;54;21025;-81
2022/10/23 13:51:53;;;;;;;2.03;0.73;;;23.30;64.30;;;;;;2380364;52;20949;-81
2022/10/23 13:54:21;;;;;;;1.30;0.50;;;23.40;64.50;;;;;;2350523;53;20977;-81
2022/10/23 13:56:47;;;;;;;2.67;0.70;;;23.40;64.60;;;;;;2338509;52;20934;-80
2022/10/23 13:59:14;;;;;;;2.72;0.62;;;23.40;64.50;;;;;;2355752;53;20917;-79
2022/10/23 14:01:41;;;;;;;3.85;0.70;;;23.40;64.40;;;;;;2345815;53;21075;-78
2022/10/23 14:04:08;;;;;;;2.05;0.70;;;23.50;64.40;;;;;;2374472;53;20955;-77
2022/10/23 14:06:36;;;;;;;2.65;0.80;;;23.50;64.40;;;;;;2408481;52;21014;-79
2022/10/23 14:09:04;;;;;;;3.50;1.15;;;23.50;64.20;;;;;;2339976;53;20990;-79
2022/10/23 14:11:31;;;;;;;1.70;0.70;;;23.50;64.10;;;;;;2416670;52;21064;-79
2022/10/23 14:13:59;;;;;;;4.45;0.77;;;23.50;64.10;;;;;;2343754;53;20939;-78
2022/10/23 14:16:27;;;;;;;2.42;0.70;;;23.50;64.00;;;;;;2369461;54;20938;-80
2022/10/23 14:18:54;;;;;;;1.30;0.57;;;23.50;63.90;;;;;;2340497;53;21486;-79
2022/10/23 14:21:21;;;;;;;1.35;0.60;;;23.60;64.10;;;;;;2337577;54;21494;-79
2022/10/23 14:23:52;;;;;;;5.87;1.00;;;23.60;64.00;;;;;;2343291;52;20946;-79